sensor_id;sensor_type;location;lat;lon;timestamp;pressure;altitude;pressure_sealevel;temperature;humidity
3796;BME280;1913;50.660;7.834;2022-11-15T00:00:08;96706.91;;;10.57;100.00
3796;BME280;1913;50.660;7.834;2022-11-15T00:02:33;96703.41;;;10.63;100.00
3796;BME280;1913;50.660;7.834;2022-11-15T00:04:58;96712.13;;;10.64;100.00
3796;BME280;1913;50.660;7.834;2022-11-15T00:07:24;96706.22;;;10.68;100.00
3796;BME280;1913;50.660;7.834;2022-11-15T00:09:49;96702.56;;;10.69;100.00
3796;BME280;1913;50.660;7.834;2022-11-15T00:12:15;96699.88;;;10.76;100.00
3796;BME280;1913;50.660;7.834;2022-11-15T00:14:40;96700.00;;;10.81;100.00
3796;BME280;1913;50.660;7.834;2022-11-15T00:17:05;96710.09;;;10.84;100.00
3796;BME280;1913;50.660;7.834;2022-11-15T00:19:31;96695.38;;;10.83;100.00
3796;BME280;1913;50.660;7.834;2022-11-15T00:21:56;96710.47;;;10.88;100.00
3796;BME280;1913;50.660;7.834;2022-11-15T00:24:21;96700.72;;;10.95;100.00
3796;BME280;1913;50.660;7.834;2022-11-15T00:26:47;96701.97;;;10.92;100.00
3796;BME280;1913;50.660;7.834;2022-11-15T00:29:12;96702.41;;;10.89;100.00
3796;BME280;1913;50.660;7.834;2022-11-15T00:31:38;96701.13;;;10.92;100.00
3796;BME280;1913;50.660;7.834;2022-11-15T00:34:03;96700.94;;;10.93;100.00
3796;BME280;1913;50.660;7.834;2022-11-15T00:36:28;96702.34;;;10.96;100.00
3796;BME280;1913;50.660;7.834;2022-11-15T00:38:57;96706.75;;;10.95;100.00
3796;BME280;1913;50.660;7.834;2022-11-15T00:41:23;96704.97;;;10.96;100.00
3796;BME280;1913;50.660;7.834;2022-11-15T00:43:48;96694.22;;;10.97;100.00
3796;BME280;1913;50.660;7.834;2022-11-15T00:46:13;96694.59;;;11.01;100.00
3796;BME280;1913;50.660;7.834;2022-11-15T00:48:39;96696.56;;;11.06;100.00
3796;BME280;1913;50.660;7.834;2022-11-15T00:51:04;96699.38;;;11.11;100.00
3796;BME280;1913;50.660;7.834;2022-11-15T00:53:29;96697.97;;;11.08;100.00
3796;BME280;1913;50.660;7.834;2022-11-15T00:55:55;96699.13;;;11.12;100.00
3796;BME280;1913;50.660;7.834;2022-11-15T00:58:20;96696.50;;;11.12;100.00
3796;BME280;1913;50.660;7.834;2022-11-15T01:00:46;96698.75;;;11.09;100.00
3796;BME280;1913;50.660;7.834;2022-11-15T01:03:11;96699.56;;;11.09;100.00
3796;BME280;1913;50.660;7.834;2022-11-15T01:05:37;96703.66;;;11.05;100.00
3796;BME280;1913;50.660;7.834;2022-11-15T01:08:03;96705.34;;;10.99;100.00
3796;BME280;1913;50.660;7.834;2022-11-15T01:10:29;96704.88;;;11.02;100.00
3796;BME280;1913;50.660;7.834;2022-11-15T01:12:54;96700.28;;;10.98;100.00
3796;BME280;1913;50.660;7.834;2022-11-15T01:15:20;96693.84;;;10.94;100.00
3796;BME280;1913;50.660;7.834;2022-11-15T01:17:45;96701.97;;;10.92;100.00
3796;BME280;1913;50.660;7.834;2022-11-15T01:20:11;96696.66;;;10.74;100.00
3796;BME280;1913;50.660;7.834;2022-11-15T01:22:37;96693.50;;;10.65;100.00
3796;BME280;1913;50.660;7.834;2022-11-15T01:25:02;96692.59;;;10.53;100.00
3796;BME280;1913;50.660;7.834;2022-11-15T01:27:28;96695.06;;;10.41;100.00
3796;BME280;1913;50.660;7.834;2022-11-15T01:29:53;96702.59;;;10.38;100.00
3796;BME280;1913;50.660;7.834;2022-11-15T01:32:19;96692.13;;;10.31;100.00
3796;BME280;1913;50.660;7.834;2022-11-15T01:34:44;96695.19;;;10.21;100.00
3796;BME280;1913;50.660;7.834;2022-11-15T01:37:09;96692.19;;;10.18;100.00
3796;BME280;1913;50.660;7.834;2022-11-15T01:39:35;96690.56;;;10.17;100.00
3796;BME280;1913;50.660;7.834;2022-11-15T01:42:00;96683.56;;;10.11;100.00
3796;BME280;1913;50.660;7.834;2022-11-15T01:44:48;96682.72;;;10.10;100.00
3796;BME280;1913;50.660;7.834;2022-11-15T01:47:15;96680.47;;;10.14;100.00
3796;BME280;1913;50.660;7.834;2022-11-15T01:49:57;96681.13;;;10.09;100.00
3796;BME280;1913;50.660;7.834;2022-11-15T01:52:26;96677.09;;;10.06;100.00
3796;BME280;1913;50.660;7.834;2022-11-15T01:54:58;96676.94;;;10.01;100.00
3796;BME280;1913;50.660;7.834;2022-11-15T01:57:24;96669.47;;;9.98;100.00
3796;BME280;1913;50.660;7.834;2022-11-15T01:59:50;96671.25;;;10.04;100.00
3796;BME280;1913;50.660;7.834;2022-11-15T02:02:15;96666.00;;;10.04;100.00
3796;BME280;1913;50.660;7.834;2022-11-15T02:04:43;96661.19;;;10.01;100.00
3796;BME280;1913;50.660;7.834;2022-11-15T02:07:12;96666.22;;;10.03;100.00
3796;BME280;1913;50.660;7.834;2022-11-15T02:09:38;96665.63;;;10.01;100.00
3796;BME280;1913;50.660;7.834;2022-11-15T02:12:05;96669.69;;;9.97;100.00
3796;BME280;1913;50.660;7.834;2022-11-15T02:14:38;96672.66;;;10.07;100.00
3796;BME280;1913;50.660;7.834;2022-11-15T02:17:21;96664.22;;;9.98;100.00
3796;BME280;1913;50.660;7.834;2022-11-15T02:23:04;96656.63;;;9.83;100.00
3796;BME280;1913;50.660;7.834;2022-11-15T02:25:39;96651.41;;;9.77;100.00
3796;BME280;1913;50.660;7.834;2022-11-15T02:31:15;96651.78;;;9.87;100.00
3796;BME280;1913;50.660;7.834;2022-11-15T02:34:16;96653.59;;;9.87;100.00
3796;BME280;1913;50.660;7.834;2022-11-15T02:39:28;96650.75;;;9.88;100.00
3796;BME280;1913;50.660;7.834;2022-11-15T02:42:39;96650.19;;;9.86;100.00
3796;BME280;1913;50.660;7.834;2022-11-15T02:45:05;96644.75;;;9.74;100.00
3796;BME280;1913;50.660;7.834;2022-11-15T02:47:39;96645.16;;;9.78;100.00
3796;BME280;1913;50.660;7.834;2022-11-15T02:50:10;96647.59;;;9.79;100.00
3796;BME280;1913;50.660;7.834;2022-11-15T02:52:37;96635.50;;;9.78;100.00
3796;BME280;1913;50.660;7.834;2022-11-15T02:55:02;96632.78;;;9.85;100.00
3796;BME280;1913;50.660;7.834;2022-11-15T03:00:10;96632.59;;;9.87;100.00
3796;BME280;1913;50.660;7.834;2022-11-15T03:06:04;96631.97;;;9.91;100.00
3796;BME280;1913;50.660;7.834;2022-11-15T03:11:15;96616.78;;;10.00;100.00
3796;BME280;1913;50.660;7.834;2022-11-15T03:16:29;96614.16;;;10.00;100.00
3796;BME280;1913;50.660;7.834;2022-11-15T03:19:23;96622.56;;;10.08;100.00
3796;BME280;1913;50.660;7.834;2022-11-15T03:21:52;96623.16;;;10.11;100.00
3796;BME280;1913;50.660;7.834;2022-11-15T03:24:21;96622.53;;;10.15;100.00
3796;BME280;1913;50.660;7.834;2022-11-15T03:26:50;96614.84;;;10.14;100.00
3796;BME280;1913;50.660;7.834;2022-11-15T03:29:26;96618.06;;;10.16;100.00
3796;BME280;1913;50.660;7.834;2022-11-15T03:31:57;96613.44;;;10.18;100.00
3796;BME280;1913;50.660;7.834;2022-11-15T03:34:32;96615.66;;;10.14;100.00
3796;BME280;1913;50.660;7.834;2022-11-15T03:36:59;96617.31;;;10.08;100.00
3796;BME280;1913;50.660;7.834;2022-11-15T03:39:25;96616.41;;;9.96;100.00
3796;BME280;1913;50.660;7.834;2022-11-15T03:42:22;96624.00;;;10.04;100.00
3796;BME280;1913;50.660;7.834;2022-11-15T03:47:29;96617.88;;;9.86;100.00
3796;BME280;1913;50.660;7.834;2022-11-15T03:50:13;96625.91;;;9.91;100.00
3796;BME280;1913;50.660;7.834;2022-11-15T03:52:41;96623.97;;;9.79;100.00
3796;BME280;1913;50.660;7.834;2022-11-15T03:55:11;96614.53;;;9.72;100.00
3796;BME280;1913;50.660;7.834;2022-11-15T03:57:37;96621.59;;;9.71;100.00
3796;BME280;1913;50.660;7.834;2022-11-15T04:00:03;96627.47;;;9.67;100.00
3796;BME280;1913;50.660;7.834;2022-11-15T04:02:29;96626.47;;;9.68;100.00
3796;BME280;1913;50.660;7.834;2022-11-15T04:04:55;96627.66;;;9.72;100.00
3796;BME280;1913;50.660;7.834;2022-11-15T04:07:20;96631.72;;;9.68;100.00
3796;BME280;1913;50.660;7.834;2022-11-15T04:09:45;96627.88;;;9.64;100.00
3796;BME280;1913;50.660;7.834;2022-11-15T04:12:35;96625.44;;;9.69;100.00
3796;BME280;1913;50.660;7.834;2022-11-15T04:15:10;96625.47;;;9.62;100.00
3796;BME280;1913;50.660;7.834;2022-11-15T04:20:26;96620.00;;;9.64;100.00
3796;BME280;1913;50.660;7.834;2022-11-15T04:26:02;96624.66;;;9.62;100.00
3796;BME280;1913;50.660;7.834;2022-11-15T04:28:28;96619.44;;;9.62;100.00
3796;BME280;1913;50.660;7.834;2022-11-15T04:30:53;96617.97;;;9.66;100.00
3796;BME280;1913;50.660;7.834;2022-11-15T04:33:19;96610.94;;;9.59;100.00
3796;BME280;1913;50.660;7.834;2022-11-15T04:35:44;96621.66;;;9.58;100.00
3796;BME280;1913;50.660;7.834;2022-11-15T04:38:30;96620.25;;;9.55;100.00
3796;BME280;1913;50.660;7.834;2022-11-15T04:40:55;96623.09;;;9.54;100.00
3796;BME280;1913;50.660;7.834;2022-11-15T04:43:21;96608.75;;;9.56;100.00
3796;BME280;1913;50.660;7.834;2022-11-15T04:45:46;96607.09;;;9.62;100.00
3796;BME280;1913;50.660;7.834;2022-11-15T04:48:11;96607.06;;;9.69;100.00
3796;BME280;1913;50.660;7.834;2022-11-15T04:50:38;96607.91;;;9.63;100.00
3796;BME280;1913;50.660;7.834;2022-11-15T04:53:03;96604.25;;;9.64;100.00
3796;BME280;1913;50.660;7.834;2022-11-15T04:55:29;96597.63;;;9.61;100.00
3796;BME280;1913;50.660;7.834;2022-11-15T04:58:01;96598.47;;;9.55;100.00
3796;BME280;1913;50.660;7.834;2022-11-15T05:00:28;96610.94;;;9.59;100.00
3796;BME280;1913;50.660;7.834;2022-11-15T05:02:54;96613.59;;;9.53;100.00
3796;BME280;1913;50.660;7.834;2022-11-15T05:05:38;96610.41;;;9.51;100.00
3796;BME280;1913;50.660;7.834;2022-11-15T05:08:04;96606.78;;;9.45;100.00
3796;BME280;1913;50.660;7.834;2022-11-15T05:10:29;96603.94;;;9.53;100.00
3796;BME280;1913;50.660;7.834;2022-11-15T05:12:55;96601.34;;;9.47;100.00
3796;BME280;1913;50.660;7.834;2022-11-15T05:15:20;96616.69;;;9.43;100.00
3796;BME280;1913;50.660;7.834;2022-11-15T05:17:45;96614.44;;;9.53;100.00
3796;BME280;1913;50.660;7.834;2022-11-15T05:20:11;96603.31;;;9.51;100.00
3796;BME280;1913;50.660;7.834;2022-11-15T05:22:37;96616.28;;;9.46;100.00
3796;BME280;1913;50.660;7.834;2022-11-15T05:25:03;96612.41;;;9.49;100.00
3796;BME280;1913;50.660;7.834;2022-11-15T05:27:29;96615.66;;;9.51;100.00
3796;BME280;1913;50.660;7.834;2022-11-15T05:29:54;96627.34;;;9.48;100.00
3796;BME280;1913;50.660;7.834;2022-11-15T05:32:20;96623.31;;;9.46;100.00
3796;BME280;1913;50.660;7.834;2022-11-15T05:34:46;96614.84;;;9.50;100.00
3796;BME280;1913;50.660;7.834;2022-11-15T05:37:12;96604.16;;;9.45;100.00
3796;BME280;1913;50.660;7.834;2022-11-15T05:39:38;96612.69;;;9.34;100.00
3796;BME280;1913;50.660;7.834;2022-11-15T05:42:14;96618.56;;;9.29;100.00
3796;BME280;1913;50.660;7.834;2022-11-15T05:44:44;96612.53;;;9.22;100.00
3796;BME280;1913;50.660;7.834;2022-11-15T05:47:14;96615.56;;;9.26;100.00
3796;BME280;1913;50.660;7.834;2022-11-15T05:49:43;96614.56;;;9.20;100.00
3796;BME280;1913;50.660;7.834;2022-11-15T05:52:11;96612.53;;;9.22;100.00
3796;BME280;1913;50.660;7.834;2022-11-15T05:54:38;96606.91;;;9.19;100.00
3796;BME280;1913;50.660;7.834;2022-11-15T05:57:04;96611.53;;;9.17;100.00
3796;BME280;1913;50.660;7.834;2022-11-15T05:59:31;96614.56;;;9.14;100.00
3796;BME280;1913;50.660;7.834;2022-11-15T06:01:58;96611.56;;;9.10;100.00
3796;BME280;1913;50.660;7.834;2022-11-15T06:04:23;96612.78;;;9.07;100.00
3796;BME280;1913;50.660;7.834;2022-11-15T06:06:48;96616.81;;;9.03;100.00
3796;BME280;1913;50.660;7.834;2022-11-15T06:09:14;96614.66;;;8.94;100.00
3796;BME280;1913;50.660;7.834;2022-11-15T06:11:39;96605.53;;;8.96;100.00
3796;BME280;1913;50.660;7.834;2022-11-15T06:14:05;96609.41;;;8.87;100.00
3796;BME280;1913;50.660;7.834;2022-11-15T06:16:30;96608.22;;;8.83;100.00
3796;BME280;1913;50.660;7.834;2022-11-15T06:18:55;96610.25;;;8.74;100.00
3796;BME280;1913;50.660;7.834;2022-11-15T06:21:21;96604.41;;;8.72;100.00
3796;BME280;1913;50.660;7.834;2022-11-15T06:23:47;96612.06;;;8.67;100.00
3796;BME280;1913;50.660;7.834;2022-11-15T06:26:12;96617.91;;;8.69;100.00
3796;BME280;1913;50.660;7.834;2022-11-15T06:28:37;96617.94;;;8.62;100.00
3796;BME280;1913;50.660;7.834;2022-11-15T06:31:10;96623.56;;;8.66;100.00
3796;BME280;1913;50.660;7.834;2022-11-15T06:33:39;96620.13;;;8.79;100.00
3796;BME280;1913;50.660;7.834;2022-11-15T06:36:10;96625.56;;;8.77;100.00
3796;BME280;1913;50.660;7.834;2022-11-15T06:38:36;96628.78;;;8.79;100.00
3796;BME280;1913;50.660;7.834;2022-11-15T06:41:07;96631.59;;;8.78;100.00
3796;BME280;1913;50.660;7.834;2022-11-15T06:43:34;96628.16;;;8.84;100.00
3796;BME280;1913;50.660;7.834;2022-11-15T06:46:00;96627.53;;;8.88;100.00
3796;BME280;1913;50.660;7.834;2022-11-15T06:48:26;96644.06;;;8.89;100.00
3796;BME280;1913;50.660;7.834;2022-11-15T06:50:57;96629.75;;;8.98;100.00
3796;BME280;1913;50.660;7.834;2022-11-15T06:53:23;96628.31;;;9.09;100.00
3796;BME280;1913;50.660;7.834;2022-11-15T06:55:49;96624.88;;;9.08;100.00
3796;BME280;1913;50.660;7.834;2022-11-15T06:58:14;96626.50;;;9.03;100.00
3796;BME280;1913;50.660;7.834;2022-11-15T07:00:39;96642.03;;;9.11;100.00
3796;BME280;1913;50.660;7.834;2022-11-15T07:03:05;96643.66;;;8.99;100.00
3796;BME280;1913;50.660;7.834;2022-11-15T07:05:31;96641.63;;;9.07;100.00
3796;BME280;1913;50.660;7.834;2022-11-15T07:07:57;96641.63;;;9.07;100.00
3796;BME280;1913;50.660;7.834;2022-11-15T07:10:23;96644.19;;;9.14;100.00
3796;BME280;1913;50.660;7.834;2022-11-15T07:12:53;96646.22;;;9.19;100.00
3796;BME280;1913;50.660;7.834;2022-11-15T07:15:21;96646.63;;;9.16;100.00
3796;BME280;1913;50.660;7.834;2022-11-15T07:17:47;96643.78;;;9.24;100.00
3796;BME280;1913;50.660;7.834;2022-11-15T07:20:13;96640.56;;;9.22;100.00
3796;BME280;1913;50.660;7.834;2022-11-15T07:22:40;96642.56;;;9.33;100.00
3796;BME280;1913;50.660;7.834;2022-11-15T07:25:06;96646.13;;;9.39;100.00
3796;BME280;1913;50.660;7.834;2022-11-15T07:27:32;96637.88;;;9.42;100.00
3796;BME280;1913;50.660;7.834;2022-11-15T07:29:58;96627.78;;;9.39;100.00
3796;BME280;1913;50.660;7.834;2022-11-15T07:32:23;96627.97;;;9.44;100.00
3796;BME280;1913;50.660;7.834;2022-11-15T07:34:48;96629.59;;;9.45;100.00
3796;BME280;1913;50.660;7.834;2022-11-15T07:37:14;96625.50;;;9.55;100.00
3796;BME280;1913;50.660;7.834;2022-11-15T07:39:39;96621.03;;;9.63;100.00
3796;BME280;1913;50.660;7.834;2022-11-15T07:42:05;96615.53;;;9.71;100.00
3796;BME280;1913;50.660;7.834;2022-11-15T07:44:49;96623.78;;;9.74;100.00
3796;BME280;1913;50.660;7.834;2022-11-15T07:47:14;96625.94;;;9.84;100.00
3796;BME280;1913;50.660;7.834;2022-11-15T07:49:40;96620.28;;;9.87;100.00
3796;BME280;1913;50.660;7.834;2022-11-15T07:52:05;96618.00;;;9.97;100.00
3796;BME280;1913;50.660;7.834;2022-11-15T07:54:31;96621.59;;;10.03;100.00
3796;BME280;1913;50.660;7.834;2022-11-15T07:56:56;96630.97;;;10.17;100.00
3796;BME280;1913;50.660;7.834;2022-11-15T07:59:22;96630.94;;;10.24;100.00
3796;BME280;1913;50.660;7.834;2022-11-15T08:01:47;96631.72;;;10.24;100.00
3796;BME280;1913;50.660;7.834;2022-11-15T08:04:12;96633.25;;;10.39;100.00
3796;BME280;1913;50.660;7.834;2022-11-15T08:06:38;96624.81;;;10.37;100.00
3796;BME280;1913;50.660;7.834;2022-11-15T08:09:03;96622.38;;;10.35;100.00
3796;BME280;1913;50.660;7.834;2022-11-15T08:11:29;96616.72;;;10.38;100.00
3796;BME280;1913;50.660;7.834;2022-11-15T08:13:55;96624.16;;;10.41;100.00
3796;BME280;1913;50.660;7.834;2022-11-15T08:16:20;96617.03;;;10.48;100.00
3796;BME280;1913;50.660;7.834;2022-11-15T08:18:46;96621.00;;;10.58;100.00
3796;BME280;1913;50.660;7.834;2022-11-15T08:21:20;96624.31;;;10.71;100.00
3796;BME280;1913;50.660;7.834;2022-11-15T08:23:46;96608.19;;;10.86;100.00
3796;BME280;1913;50.660;7.834;2022-11-15T08:26:11;96611.69;;;10.98;100.00
3796;BME280;1913;50.660;7.834;2022-11-15T08:28:37;96613.75;;;10.96;100.00
3796;BME280;1913;50.660;7.834;2022-11-15T08:31:03;96603.66;;;10.93;100.00
3796;BME280;1913;50.660;7.834;2022-11-15T08:33:29;96609.06;;;10.98;100.00
3796;BME280;1913;50.660;7.834;2022-11-15T08:35:59;96614.13;;;11.00;100.00
3796;BME280;1913;50.660;7.834;2022-11-15T08:38:25;96613.47;;;11.05;100.00
3796;BME280;1913;50.660;7.834;2022-11-15T08:40:52;96617.03;;;10.92;100.00
3796;BME280;1913;50.660;7.834;2022-11-15T08:43:18;96615.84;;;10.88;100.00
3796;BME280;1913;50.660;7.834;2022-11-15T08:45:44;96608.63;;;10.83;100.00
3796;BME280;1913;50.660;7.834;2022-11-15T08:48:10;96608.03;;;10.81;100.00
3796;BME280;1913;50.660;7.834;2022-11-15T08:50:35;96597.44;;;10.88;100.00
3796;BME280;1913;50.660;7.834;2022-11-15T08:53:05;96594.16;;;10.74;100.00
3796;BME280;1913;50.660;7.834;2022-11-15T08:55:31;96602.13;;;10.86;100.00
3796;BME280;1913;50.660;7.834;2022-11-15T08:57:57;96599.44;;;10.92;100.00
3796;BME280;1913;50.660;7.834;2022-11-15T09:00:23;96595.63;;;11.25;100.00
3796;BME280;1913;50.660;7.834;2022-11-15T09:02:48;96596.41;;;11.44;100.00
3796;BME280;1913;50.660;7.834;2022-11-15T09:05:14;96607.22;;;11.54;100.00
3796;BME280;1913;50.660;7.834;2022-11-15T09:07:40;96601.78;;;11.49;100.00
3796;BME280;1913;50.660;7.834;2022-11-15T09:10:06;96597.22;;;11.44;100.00
3796;BME280;1913;50.660;7.834;2022-11-15T09:12:32;96599.16;;;11.49;100.00
3796;BME280;1913;50.660;7.834;2022-11-15T09:14:57;96598.84;;;11.27;100.00
3796;BME280;1913;50.660;7.834;2022-11-15T09:17:23;96595.63;;;11.25;100.00
3796;BME280;1913;50.660;7.834;2022-11-15T09:19:48;96589.13;;;11.09;100.00
3796;BME280;1913;50.660;7.834;2022-11-15T09:22:14;96593.75;;;11.14;100.00
3796;BME280;1913;50.660;7.834;2022-11-15T09:24:39;96594.97;;;11.11;100.00
3796;BME280;1913;50.660;7.834;2022-11-15T09:27:04;96591.63;;;11.04;100.00
3796;BME280;1913;50.660;7.834;2022-11-15T09:29:30;96599.38;;;11.17;100.00
3796;BME280;1913;50.660;7.834;2022-11-15T09:31:55;96588.09;;;11.29;100.00
3796;BME280;1913;50.660;7.834;2022-11-15T09:34:21;96593.28;;;11.35;100.00
3796;BME280;1913;50.660;7.834;2022-11-15T09:36:46;96586.84;;;11.49;100.00
3796;BME280;1913;50.660;7.834;2022-11-15T09:39:12;96590.13;;;11.75;100.00
3796;BME280;1913;50.660;7.834;2022-11-15T09:44:51;96596.38;;;12.46;100.00
3796;BME280;1913;50.660;7.834;2022-11-15T09:49:57;96591.09;;;12.69;100.00
3796;BME280;1913;50.660;7.834;2022-11-15T09:52:24;96587.41;;;12.82;100.00
3796;BME280;1913;50.660;7.834;2022-11-15T09:54:51;96579.00;;;13.09;100.00
3796;BME280;1913;50.660;7.834;2022-11-15T10:00:12;96590.66;;;12.49;100.00
3796;BME280;1913;50.660;7.834;2022-11-15T10:05:22;96575.34;;;13.10;100.00
3796;BME280;1913;50.660;7.834;2022-11-15T10:10:40;96560.22;;;13.46;100.00
3796;BME280;1913;50.660;7.834;2022-11-15T10:13:23;96563.50;;;13.12;100.00
3796;BME280;1913;50.660;7.834;2022-11-15T10:15:50;96560.47;;;12.92;100.00
3796;BME280;1913;50.660;7.834;2022-11-15T10:18:55;96560.63;;;12.74;100.00
3796;BME280;1913;50.660;7.834;2022-11-15T10:21:17;96560.00;;;12.95;100.00
3796;BME280;1913;50.660;7.834;2022-11-15T10:23:44;96550.69;;;13.04;100.00
3796;BME280;1913;50.660;7.834;2022-11-15T10:26:15;96547.28;;;12.80;100.00
3796;BME280;1913;50.660;7.834;2022-11-15T10:28:41;96541.22;;;12.80;100.00
3796;BME280;1913;50.660;7.834;2022-11-15T10:31:27;96538.91;;;12.95;100.00
3796;BME280;1913;50.660;7.834;2022-11-15T10:34:11;96538.56;;;12.80;100.00
3796;BME280;1913;50.660;7.834;2022-11-15T10:36:44;96538.38;;;12.34;100.00
3796;BME280;1913;50.660;7.834;2022-11-15T10:39:13;96529.09;;;12.43;100.00
3796;BME280;1913;50.660;7.834;2022-11-15T10:41:41;96523.69;;;12.62;100.00
3796;BME280;1913;50.660;7.834;2022-11-15T10:46:33;96517.78;;;13.07;100.00
3796;BME280;1913;50.660;7.834;2022-11-15T10:51:53;96504.28;;;14.11;100.00
3796;BME280;1913;50.660;7.834;2022-11-15T10:54:48;96488.22;;;13.96;100.00
3796;BME280;1913;50.660;7.834;2022-11-15T10:57:18;96495.84;;;13.47;100.00
3796;BME280;1913;50.660;7.834;2022-11-15T11:00:12;96488.22;;;13.33;100.00
3796;BME280;1913;50.660;7.834;2022-11-15T11:08:01;96489.88;;;13.85;100.00
3796;BME280;1913;50.660;7.834;2022-11-15T11:10:29;96483.72;;;14.13;100.00
3796;BME280;1913;50.660;7.834;2022-11-15T11:12:55;96486.41;;;14.52;100.00
3796;BME280;1913;50.660;7.834;2022-11-15T11:15:22;96487.91;;;15.08;100.00
3796;BME280;1913;50.660;7.834;2022-11-15T11:20:34;96474.03;;;15.23;100.00
3796;BME280;1913;50.660;7.834;2022-11-15T11:42:50;96440.31;;;16.05;100.00
3796;BME280;1913;50.660;7.834;2022-11-15T11:48:14;96428.06;;;15.07;100.00
3796;BME280;1913;50.660;7.834;2022-11-15T11:50:42;96418.22;;;14.37;100.00
3796;BME280;1913;50.660;7.834;2022-11-15T11:55:53;96414.75;;;14.31;100.00
3796;BME280;1913;50.660;7.834;2022-11-15T12:00:55;96411.50;;;14.46;100.00
3796;BME280;1913;50.660;7.834;2022-11-15T12:03:25;96411.41;;;14.80;100.00
3796;BME280;1913;50.660;7.834;2022-11-15T12:05:57;96413.28;;;15.12;100.00
3796;BME280;1913;50.660;7.834;2022-11-15T12:08:40;96403.78;;;15.43;100.00
3796;BME280;1913;50.660;7.834;2022-11-15T12:11:17;96403.69;;;15.32;100.00
3796;BME280;1913;50.660;7.834;2022-11-15T12:13:44;96408.25;;;15.37;100.00
3796;BME280;1913;50.660;7.834;2022-11-15T12:16:21;96413.84;;;15.41;100.00
3796;BME280;1913;50.660;7.834;2022-11-15T12:18:52;96411.44;;;14.85;100.00
3796;BME280;1913;50.660;7.834;2022-11-15T12:21:46;96410.91;;;14.44;100.00
3796;BME280;1913;50.660;7.834;2022-11-15T12:24:24;96399.69;;;13.76;100.00
3796;BME280;1913;50.660;7.834;2022-11-15T12:27:05;96415.53;;;13.76;100.00
3796;BME280;1913;50.660;7.834;2022-11-15T12:29:36;96399.41;;;14.11;100.00
3796;BME280;1913;50.660;7.834;2022-11-15T12:32:03;96409.16;;;14.72;100.00
3796;BME280;1913;50.660;7.834;2022-11-15T12:34:37;96398.47;;;14.61;100.00
3796;BME280;1913;50.660;7.834;2022-11-15T12:42:40;96402.63;;;14.35;100.00
3796;BME280;1913;50.660;7.834;2022-11-15T12:45:38;96386.28;;;13.27;100.00
3796;BME280;1913;50.660;7.834;2022-11-15T12:58:59;96366.56;;;12.73;100.00
3796;BME280;1913;50.660;7.834;2022-11-15T13:13:02;96343.34;;;12.58;100.00
3796;BME280;1913;50.660;7.834;2022-11-15T13:15:51;96335.81;;;12.50;100.00
3796;BME280;1913;50.660;7.834;2022-11-15T13:17:54;96325.16;;;12.44;100.00
3796;BME280;1913;50.660;7.834;2022-11-15T13:20:31;96326.53;;;12.18;100.00
3796;BME280;1913;50.660;7.834;2022-11-15T13:35:49;96321.53;;;12.34;100.00
3796;BME280;1913;50.660;7.834;2022-11-15T13:38:36;96312.97;;;12.38;100.00
3796;BME280;1913;50.660;7.834;2022-11-15T13:41:20;96312.50;;;12.30;100.00
3796;BME280;1913;50.660;7.834;2022-11-15T13:43:47;96308.19;;;12.23;100.00
3796;BME280;1913;50.660;7.834;2022-11-15T13:46:15;96303.41;;;12.20;100.00
3796;BME280;1913;50.660;7.834;2022-11-15T13:48:42;96307.50;;;12.16;100.00
3796;BME280;1913;50.660;7.834;2022-11-15T13:51:25;96299.31;;;12.01;100.00
3796;BME280;1913;50.660;7.834;2022-11-15T13:53:59;96294.41;;;11.93;100.00
3796;BME280;1913;50.660;7.834;2022-11-15T13:56:27;96297.19;;;11.86;100.00
3796;BME280;1913;50.660;7.834;2022-11-15T13:58:54;96288.00;;;11.77;100.00
3796;BME280;1913;50.660;7.834;2022-11-15T14:01:21;96280.78;;;11.72;100.00
3796;BME280;1913;50.660;7.834;2022-11-15T14:03:53;96283.56;;;11.66;100.00
3796;BME280;1913;50.660;7.834;2022-11-15T14:06:21;96284.72;;;11.58;100.00
3796;BME280;1913;50.660;7.834;2022-11-15T14:11:35;96272.13;;;11.48;100.00
3796;BME280;1913;50.660;7.834;2022-11-15T14:16:45;96265.75;;;11.33;100.00
3796;BME280;1913;50.660;7.834;2022-11-15T14:24:37;96244.13;;;11.31;100.00
3796;BME280;1913;50.660;7.834;2022-11-15T14:27:26;96256.81;;;11.22;100.00
3796;BME280;1913;50.660;7.834;2022-11-15T14:29:52;96241.94;;;11.16;100.00
3796;BME280;1913;50.660;7.834;2022-11-15T14:32:26;96244.13;;;11.07;100.00
3796;BME280;1913;50.660;7.834;2022-11-15T14:35:02;96238.88;;;11.07;100.00
3796;BME280;1913;50.660;7.834;2022-11-15T14:37:31;96233.84;;;11.17;100.00
3796;BME280;1913;50.660;7.834;2022-11-15T14:39:58;96233.16;;;11.10;100.00
3796;BME280;1913;50.660;7.834;2022-11-15T14:42:24;96228.34;;;11.07;100.00
3796;BME280;1913;50.660;7.834;2022-11-15T14:44:51;96212.78;;;11.06;100.00
3796;BME280;1913;50.660;7.834;2022-11-15T14:47:17;96219.00;;;10.99;100.00
3796;BME280;1913;50.660;7.834;2022-11-15T14:49:42;96211.31;;;10.98;100.00
3796;BME280;1913;50.660;7.834;2022-11-15T14:54:42;96194.66;;;10.92;100.00
3796;BME280;1913;50.660;7.834;2022-11-15T14:57:08;96184.25;;;10.86;100.00
3796;BME280;1913;50.660;7.834;2022-11-15T14:59:33;96181.25;;;10.82;100.00
3796;BME280;1913;50.660;7.834;2022-11-15T15:01:58;96179.53;;;10.76;100.00
3796;BME280;1913;50.660;7.834;2022-11-15T15:04:24;96190.28;;;10.74;100.00
3796;BME280;1913;50.660;7.834;2022-11-15T15:06:49;96195.66;;;10.68;100.00
3796;BME280;1913;50.660;7.834;2022-11-15T15:09:15;96178.63;;;10.70;100.00
3796;BME280;1913;50.660;7.834;2022-11-15T15:11:40;96172.09;;;10.61;100.00
3796;BME280;1913;50.660;7.834;2022-11-15T15:14:06;96174.16;;;10.59;100.00
3796;BME280;1913;50.660;7.834;2022-11-15T15:16:31;96178.94;;;10.50;100.00
3796;BME280;1913;50.660;7.834;2022-11-15T15:18:56;96168.19;;;10.52;100.00
3796;BME280;1913;50.660;7.834;2022-11-15T15:21:24;96166.59;;;10.39;100.00
3796;BME280;1913;50.660;7.834;2022-11-15T15:23:50;96152.44;;;10.40;100.00
3796;BME280;1913;50.660;7.834;2022-11-15T15:26:16;96146.38;;;10.40;100.00
3796;BME280;1913;50.660;7.834;2022-11-15T15:28:42;96151.16;;;10.31;100.00
3796;BME280;1913;50.660;7.834;2022-11-15T15:31:09;96146.13;;;10.29;100.00
3796;BME280;1913;50.660;7.834;2022-11-15T15:33:34;96154.22;;;10.28;100.00
3796;BME280;1913;50.660;7.834;2022-11-15T15:35:59;96152.25;;;10.23;100.00
3796;BME280;1913;50.660;7.834;2022-11-15T15:38:25;96134.91;;;10.22;100.00
3796;BME280;1913;50.660;7.834;2022-11-15T15:40:50;96144.63;;;10.22;100.00